createdAt,value
2023-03-24T00:00:52.665Z,13.22
2023-03-24T00:01:52.669Z,13.22
2023-03-24T00:02:52.744Z,13.20
2023-03-24T00:03:52.829Z,13.20
2023-03-24T00:04:52.670Z,13.19
2023-03-24T00:05:52.619Z,13.18
2023-03-24T00:06:52.685Z,13.18
2023-03-24T00:07:54.877Z,13.16
2023-03-24T00:08:52.579Z,13.16
2023-03-24T00:09:52.601Z,13.15
2023-03-24T00:10:52.578Z,13.13
2023-03-24T00:11:52.571Z,13.13
2023-03-24T00:12:52.559Z,13.13
2023-03-24T00:13:52.552Z,13.11
2023-03-24T00:14:52.513Z,13.11
2023-03-24T00:15:52.600Z,13.09
2023-03-24T00:16:52.482Z,13.08
2023-03-24T00:17:52.729Z,13.08
2023-03-24T00:18:52.457Z,13.08
2023-03-24T00:19:52.480Z,13.09
2023-03-24T00:20:52.437Z,13.08
2023-03-24T00:21:52.476Z,13.04
2023-03-24T00:22:52.421Z,13.09
2023-03-24T00:23:52.423Z,13.04
2023-03-24T00:24:52.395Z,13.04
2023-03-24T00:25:52.400Z,13.04
2023-03-24T00:26:52.390Z,13.05
2023-03-24T00:27:52.402Z,13.04
2023-03-24T00:28:52.355Z,13.03
2023-03-24T00:29:52.353Z,13.05
2023-03-24T00:30:52.357Z,13.04
2023-03-24T00:31:52.331Z,13.08
2023-03-24T00:32:52.427Z,13.03
2023-03-24T00:33:52.342Z,13.04
2023-03-24T00:34:52.328Z,13.04
2023-03-24T00:35:52.355Z,13.04
2023-03-24T00:36:52.275Z,13.04
2023-03-24T00:37:52.376Z,13.04
2023-03-24T00:38:52.248Z,13.05
2023-03-24T00:39:52.287Z,13.08
2023-03-24T00:40:52.235Z,13.05
2023-03-24T00:41:52.234Z,13.08
2023-03-24T00:42:52.207Z,13.05
2023-03-24T00:43:52.196Z,13.04
2023-03-24T00:44:52.191Z,13.08
2023-03-24T00:45:52.225Z,13.09
2023-03-24T00:46:52.216Z,13.08
2023-03-24T00:47:52.194Z,13.08
2023-03-24T00:48:52.150Z,13.08
2023-03-24T00:49:52.158Z,13.12
2023-03-24T00:50:52.144Z,13.11
2023-03-24T00:51:52.173Z,13.11
2023-03-24T00:52:52.101Z,13.11
2023-03-24T00:53:52.106Z,13.12
2023-03-24T00:54:52.078Z,13.12
2023-03-24T00:55:52.095Z,13.13
2023-03-24T00:56:52.086Z,13.12
2023-03-24T00:57:52.105Z,13.11
2023-03-24T00:58:52.045Z,13.12
2023-03-24T00:59:52.054Z,13.09
2023-03-24T01:00:52.028Z,13.11
2023-03-24T01:01:52.075Z,13.08
2023-03-24T01:02:52.025Z,13.11
2023-03-24T01:03:52.025Z,13.09
2023-03-24T01:04:51.979Z,13.08
2023-03-24T01:05:51.989Z,13.09
2023-03-24T01:06:51.936Z,13.08
2023-03-24T01:07:51.972Z,13.09
2023-03-24T01:08:51.926Z,13.08
2023-03-24T01:09:51.978Z,13.09
2023-03-24T01:10:51.894Z,13.08
2023-03-24T01:11:51.923Z,13.08
2023-03-24T01:12:51.885Z,13.08
2023-03-24T01:13:51.896Z,13.05
2023-03-24T01:14:51.852Z,13.04
2023-03-24T01:15:51.974Z,13.08
2023-03-24T01:16:51.852Z,13.05
2023-03-24T01:17:51.862Z,13.05
2023-03-24T01:18:51.818Z,13.04
2023-03-24T01:19:51.821Z,13.05
2023-03-24T01:20:51.835Z,13.05
2023-03-24T01:21:51.787Z,13.05
2023-03-24T01:22:51.837Z,13.05
2023-03-24T01:23:51.749Z,13.05
2023-03-24T01:24:51.804Z,13.08
2023-03-24T01:25:51.786Z,13.05
2023-03-24T01:26:51.738Z,13.03
2023-03-24T01:27:51.751Z,13.04
2023-03-24T01:28:51.723Z,13.08
2023-03-24T01:29:51.689Z,13.05
2023-03-24T01:30:51.700Z,13.05
2023-03-24T01:31:51.705Z,13.08
2023-03-24T01:32:51.712Z,13.09
2023-03-24T01:33:51.674Z,13.09
2023-03-24T01:34:51.669Z,13.09
2023-03-24T01:35:51.647Z,13.08
2023-03-24T01:36:51.635Z,13.09
2023-03-24T01:37:51.636Z,13.09
2023-03-24T01:38:51.651Z,13.09
2023-03-24T01:39:51.600Z,13.11
2023-03-24T01:40:51.588Z,13.11
2023-03-24T01:41:51.570Z,13.11
2023-03-24T01:42:51.591Z,13.11
2023-03-24T01:43:51.531Z,13.12
2023-03-24T01:44:51.554Z,13.11
2023-03-24T01:45:52.068Z,13.12
2023-03-24T01:46:51.544Z,13.11
2023-03-24T01:47:51.544Z,13.11
2023-03-24T01:48:51.505Z,13.12
2023-03-24T01:49:51.468Z,13.09
2023-03-24T01:50:51.475Z,13.11
2023-03-24T01:51:51.495Z,13.11
2023-03-24T01:52:51.470Z,13.11
2023-03-24T01:53:51.446Z,13.12
2023-03-24T01:54:51.449Z,13.11
2023-03-24T01:55:51.405Z,13.11
2023-03-24T01:56:51.471Z,13.12
2023-03-24T01:57:51.428Z,13.13
2023-03-24T01:58:51.398Z,13.12
2023-03-24T01:59:51.378Z,13.12
2023-03-24T02:00:51.409Z,13.12
2023-03-24T02:01:51.337Z,13.13
2023-03-24T02:02:51.417Z,13.13
2023-03-24T02:03:51.389Z,13.15
2023-03-24T02:04:51.326Z,13.13
2023-03-24T02:05:51.313Z,13.13
2023-03-24T02:06:51.315Z,13.12
2023-03-24T02:07:51.322Z,13.16
2023-03-24T02:08:51.291Z,13.16
2023-03-24T02:09:51.277Z,13.16
2023-03-24T02:10:51.262Z,13.15
2023-03-24T02:11:51.252Z,13.15
2023-03-24T02:12:51.259Z,13.13
2023-03-24T02:13:51.210Z,13.13
2023-03-24T02:14:51.226Z,13.15
2023-03-24T02:15:51.234Z,13.13
2023-03-24T02:16:51.227Z,13.13
2023-03-24T02:17:51.238Z,13.13
2023-03-24T02:18:51.197Z,13.16
2023-03-24T02:19:51.144Z,13.15
2023-03-24T02:20:51.177Z,13.18
2023-03-24T02:21:51.120Z,13.15
2023-03-24T02:22:51.224Z,13.15
2023-03-24T02:23:51.129Z,13.15
2023-03-24T02:24:51.102Z,13.16
2023-03-24T02:25:51.097Z,13.16
2023-03-24T02:26:51.079Z,13.15
2023-03-24T02:27:51.068Z,13.15
2023-03-24T02:28:51.119Z,13.16
2023-03-24T02:29:51.074Z,13.16
2023-03-24T07:01:00.324Z,13.19
2023-03-24T07:02:01.354Z,13.20
2023-03-24T07:03:01.381Z,13.20
2023-03-24T07:04:01.331Z,13.23
2023-03-24T07:05:01.270Z,13.23
2023-03-24T07:06:01.290Z,13.28
2023-03-24T07:07:22.498Z,13.28
2023-03-24T07:09:01.220Z,13.31
2023-03-24T07:10:01.234Z,13.35
2023-03-24T07:11:01.187Z,13.38
2023-03-24T07:12:01.234Z,13.35
2023-03-24T07:13:01.164Z,13.33
2023-03-24T07:14:01.207Z,13.35
2023-03-24T07:15:01.150Z,13.35
2023-03-24T07:16:01.184Z,13.33
2023-03-24T07:17:01.134Z,13.30
2023-03-24T07:18:01.177Z,13.31
2023-03-24T07:19:01.125Z,13.30
2023-03-24T07:20:01.116Z,13.31
2023-03-24T07:21:01.076Z,13.30
2023-03-24T07:22:01.088Z,13.30
2023-03-24T07:23:01.106Z,13.30
2023-03-24T07:24:01.173Z,13.28
2023-03-24T07:25:01.038Z,13.28
2023-03-24T07:26:01.067Z,13.31
2023-03-24T07:27:01.028Z,13.28
2023-03-24T07:28:01.013Z,13.28
2023-03-24T07:29:00.995Z,13.27
2023-03-24T07:30:01.024Z,13.27
2023-03-24T07:31:01.298Z,13.27
2023-03-24T07:32:01.121Z,13.30
2023-03-24T07:33:01.010Z,13.31
2023-03-24T07:34:01.994Z,13.30
2023-03-24T07:35:01.008Z,13.33
2023-03-24T07:36:01.013Z,13.33
2023-03-24T07:37:02.072Z,13.33
2023-03-24T07:38:00.903Z,13.37
2023-03-24T07:39:00.888Z,13.37
2023-03-24T07:40:00.887Z,13.41
2023-03-24T07:41:00.873Z,13.42
2023-03-24T07:42:00.970Z,13.42
2023-03-24T07:43:00.831Z,13.46
2023-03-24T07:44:00.848Z,13.46
2023-03-24T07:45:00.829Z,13.47
2023-03-24T07:46:00.898Z,13.50
2023-03-24T07:47:00.819Z,13.53
2023-03-24T07:48:00.873Z,13.53
2023-03-24T07:49:11.867Z,13.52
2023-03-24T07:50:00.789Z,13.52
2023-03-24T07:51:00.754Z,13.52
2023-03-24T07:52:00.774Z,13.50
2023-03-24T07:53:00.784Z,13.53
2023-03-24T07:54:01.092Z,13.52
2023-03-24T07:55:00.709Z,13.52
2023-03-24T07:56:00.720Z,13.49
2023-03-24T07:57:00.734Z,13.52
2023-03-24T07:58:00.692Z,13.50
2023-03-24T07:59:00.736Z,13.49
2023-03-24T08:00:00.688Z,13.46
2023-03-24T08:01:00.648Z,13.42
2023-03-24T08:02:00.795Z,13.41
2023-03-24T08:03:00.885Z,13.39
2023-03-24T08:04:00.712Z,13.38
2023-03-24T08:05:00.610Z,13.37
2023-03-24T08:06:00.625Z,13.35
2023-03-24T08:07:00.576Z,13.35
2023-03-24T08:08:00.594Z,13.33
2023-03-24T08:09:00.556Z,13.31
2023-03-24T08:10:00.577Z,13.30
2023-03-24T08:11:00.566Z,13.30
2023-03-24T08:12:04.366Z,13.28
2023-03-24T08:13:00.521Z,13.25
2023-03-24T08:14:00.578Z,13.23
2023-03-24T08:15:00.503Z,13.25
2023-03-24T08:16:00.502Z,13.27
2023-03-24T08:17:00.520Z,13.23
2023-03-24T08:18:00.531Z,13.23
2023-03-24T08:19:00.462Z,13.22
2023-03-24T08:20:02.165Z,13.22
2023-03-24T08:21:00.429Z,13.22
2023-03-24T08:22:00.436Z,13.22
2023-03-24T08:23:00.405Z,13.22
2023-03-24T08:24:00.404Z,13.19
2023-03-24T08:25:00.376Z,13.18
2023-03-24T08:26:00.444Z,13.16
2023-03-24T08:27:00.360Z,13.16
2023-03-24T08:28:00.368Z,13.13
2023-03-24T08:29:00.350Z,13.11
2023-03-24T08:30:00.336Z,13.09
2023-03-24T08:31:00.377Z,13.08
2023-03-24T08:32:00.345Z,13.03
2023-03-24T08:33:00.351Z,13.01
2023-03-24T08:34:00.316Z,12.98
2023-03-24T08:35:00.274Z,12.97
2023-03-24T08:36:00.304Z,12.94
2023-03-24T08:37:00.301Z,12.90
2023-03-24T08:38:00.252Z,12.87
2023-03-24T08:39:00.236Z,12.87
2023-03-24T08:40:00.239Z,12.86
2023-03-24T08:41:00.215Z,12.85
2023-03-24T08:42:00.220Z,12.86
2023-03-24T08:43:00.176Z,12.82
2023-03-24T08:44:00.207Z,12.82
2023-03-24T08:45:00.167Z,12.82
2023-03-24T08:46:00.240Z,12.79
2023-03-24T08:47:00.167Z,12.78
2023-03-24T08:48:00.201Z,12.79
2023-03-24T08:49:00.130Z,12.79
2023-03-24T08:50:00.136Z,12.76
2023-03-24T08:51:00.105Z,12.79
2023-03-24T08:52:00.147Z,12.78
2023-03-24T08:53:00.109Z,12.78
2023-03-24T08:54:00.113Z,12.79
2023-03-24T08:55:00.108Z,12.79
2023-03-24T08:56:00.051Z,12.79
2023-03-24T08:57:00.089Z,12.79
2023-03-24T08:58:00.070Z,12.82
2023-03-24T08:59:00.045Z,12.79
2023-03-24T09:00:00.009Z,12.76
2023-03-24T09:00:59.982Z,12.78
2023-03-24T09:02:00.071Z,12.76
2023-03-24T09:02:59.989Z,12.79
2023-03-24T09:03:59.977Z,12.76
2023-03-24T09:05:00.035Z,12.73
2023-03-24T09:06:00.348Z,12.73
2023-03-24T09:07:02.306Z,12.73
2023-03-24T09:07:59.917Z,12.72
2023-03-24T09:08:59.922Z,12.72
2023-03-24T09:09:59.915Z,12.72
2023-03-24T09:10:59.995Z,12.70
2023-03-24T09:11:59.921Z,12.72
2023-03-24T09:12:59.876Z,12.70
2023-03-24T09:13:59.953Z,12.68
2023-03-24T09:14:59.838Z,12.67
2023-03-24T09:15:59.887Z,12.64
2023-03-24T09:16:59.810Z,12.65
2023-03-24T09:17:59.873Z,12.64
2023-03-24T09:18:59.863Z,12.61
2023-03-24T09:20:02.044Z,12.64
2023-03-24T09:20:59.770Z,12.62
2023-03-24T09:21:59.792Z,12.58
2023-03-24T09:22:59.752Z,12.55
2023-03-24T09:23:59.828Z,12.55
2023-03-24T09:24:59.738Z,12.49
2023-03-24T09:25:59.769Z,12.42
2023-03-24T09:26:59.711Z,12.40
2023-03-24T09:27:59.710Z,12.36
2023-03-24T09:28:59.674Z,12.32
2023-03-24T09:29:59.683Z,12.28
2023-03-24T09:30:59.762Z,12.27
2023-03-24T09:31:59.687Z,12.21
2023-03-24T09:32:59.749Z,12.20
2023-03-24T09:34:00.246Z,12.21
2023-03-24T09:34:59.613Z,12.18
2023-03-24T09:36:00.399Z,12.15
2023-03-24T09:36:59.597Z,12.15
2023-03-24T09:37:59.628Z,12.12
2023-03-24T09:38:59.583Z,12.12
2023-03-24T09:39:59.564Z,12.13
2023-03-24T09:40:59.558Z,12.10
2023-03-24T09:41:59.546Z,12.12
2023-03-24T09:42:59.549Z,12.12
2023-03-24T09:43:59.573Z,12.13
2023-03-24T09:44:59.521Z,12.12
2023-03-24T09:45:59.520Z,12.15
2023-03-24T09:46:59.539Z,12.17
2023-03-24T09:47:59.552Z,12.13
2023-03-24T09:48:59.484Z,12.17
2023-03-24T09:49:59.499Z,12.17
2023-03-24T09:50:59.471Z,12.17
2023-03-24T09:51:59.437Z,12.17
2023-03-24T09:52:59.430Z,12.15
2023-03-24T09:53:59.492Z,12.13
2023-03-24T09:54:59.410Z,12.15
2023-03-24T09:55:59.411Z,12.15
2023-03-24T09:56:59.440Z,12.12
2023-03-24T09:57:59.392Z,12.13
2023-03-24T09:58:59.354Z,12.13
2023-03-24T09:59:59.387Z,12.09
2023-03-24T10:00:59.365Z,12.09
2023-03-24T10:01:59.360Z,12.07
2023-03-24T10:02:59.365Z,12.07
2023-03-24T10:03:59.445Z,12.07
2023-03-24T10:04:59.298Z,12.06
2023-03-24T10:05:59.347Z,12.04
2023-03-24T10:06:59.282Z,12.04
2023-03-24T10:07:59.319Z,12.03
2023-03-24T10:08:59.272Z,12.06
2023-03-24T10:09:59.296Z,12.03
2023-03-24T10:10:59.249Z,12.02
2023-03-24T10:11:59.297Z,12.00
2023-03-24T10:12:59.253Z,11.99
2023-03-24T10:13:59.209Z,11.99
2023-03-24T10:14:59.211Z,11.99
2023-03-24T10:15:59.208Z,11.99
2023-03-24T10:16:59.186Z,11.95
2023-03-24T10:17:59.300Z,11.99
2023-03-24T10:18:59.180Z,11.95
2023-03-24T10:20:00.208Z,11.90
2023-03-24T10:20:59.155Z,11.88
2023-03-24T10:21:59.182Z,11.88
2023-03-24T10:22:59.116Z,11.90
2023-03-24T10:23:59.093Z,11.87
2023-03-24T10:24:59.084Z,11.88
2023-03-24T10:25:59.126Z,11.88
2023-03-24T10:26:59.072Z,11.86
2023-03-24T10:27:59.129Z,11.84
2023-03-24T10:28:59.048Z,11.83
2023-03-24T10:29:59.021Z,11.81
2023-03-24T10:30:59.045Z,11.80
2023-03-24T10:31:59.112Z,11.80
2023-03-24T10:32:59.134Z,11.78
2023-03-24T10:33:59.020Z,11.77
2023-03-24T10:34:58.991Z,11.78
2023-03-24T10:35:59.015Z,11.80
2023-03-24T10:36:58.969Z,11.80
2023-03-24T10:37:58.950Z,11.77
2023-03-24T10:39:03.905Z,11.77
2023-03-24T10:39:58.957Z,11.78
2023-03-24T10:40:58.932Z,11.78
2023-03-24T10:41:58.927Z,11.80
2023-03-24T10:43:07.440Z,11.80
2023-03-24T10:43:58.885Z,11.86
2023-03-24T10:44:58.888Z,11.88
2023-03-24T10:45:58.908Z,11.91
2023-03-24T10:46:58.873Z,11.95
2023-03-24T10:47:58.932Z,12.00
2023-03-24T10:48:58.845Z,12.04
2023-03-24T10:49:58.834Z,12.07
2023-03-24T10:50:58.884Z,12.10
2023-03-24T10:51:58.803Z,12.15
2023-03-24T10:52:58.808Z,12.18
2023-03-24T10:53:58.793Z,12.21
2023-03-24T10:54:58.774Z,12.25
2023-03-24T10:55:58.764Z,12.27
2023-03-24T10:56:58.851Z,12.29
2023-03-24T10:57:58.741Z,12.35
2023-03-24T10:58:58.758Z,12.32
2023-03-24T10:59:58.762Z,12.36
2023-03-24T11:00:58.776Z,12.32
2023-03-24T11:01:58.753Z,12.35
2023-03-24T11:02:58.932Z,12.36
2023-03-24T11:03:58.670Z,12.36
2023-03-24T11:04:58.687Z,12.36
2023-03-24T11:05:58.686Z,12.35
2023-03-24T11:06:59.427Z,12.31
2023-03-24T11:07:58.614Z,12.31
2023-03-24T11:08:58.641Z,12.35
2023-03-24T11:09:58.607Z,12.35
2023-03-24T11:10:58.615Z,12.35
2023-03-24T11:11:58.566Z,12.37
2023-03-24T11:12:58.614Z,12.37
2023-03-24T11:13:58.543Z,12.37
2023-03-24T11:15:01.380Z,12.35
2023-03-24T11:15:58.548Z,12.36
2023-03-24T11:16:58.555Z,12.32
2023-03-24T11:17:58.564Z,12.32
2023-03-24T11:18:58.536Z,12.37
2023-03-24T11:19:58.474Z,12.40
2023-03-24T11:20:58.490Z,12.46
2023-03-24T11:21:58.484Z,12.49
2023-03-24T11:22:58.479Z,12.53
2023-03-24T11:23:58.430Z,12.54
2023-03-24T11:24:58.440Z,12.55
2023-03-24T11:25:58.419Z,12.58
2023-03-24T11:26:58.426Z,12.58
2023-03-24T11:27:58.416Z,12.62
2023-03-24T11:28:58.415Z,12.62
2023-03-24T11:29:58.382Z,12.62
2023-03-24T11:30:58.451Z,12.65
2023-03-24T11:31:58.379Z,12.67
2023-03-24T11:32:58.447Z,12.67
2023-03-24T11:33:58.336Z,12.67
2023-03-24T11:34:58.361Z,12.67
2023-03-24T11:36:05.177Z,12.68
2023-03-24T11:36:58.385Z,12.75
2023-03-24T11:37:58.342Z,12.79
2023-03-24T11:38:58.293Z,12.79
2023-03-24T11:39:58.260Z,12.85
2023-03-24T11:40:58.270Z,12.86
2023-03-24T11:41:58.245Z,12.93
2023-03-24T11:42:58.237Z,13.00
2023-03-24T11:43:58.246Z,13.03
2023-03-24T11:44:58.241Z,13.09
2023-03-24T11:45:58.219Z,13.12
2023-03-24T11:46:58.244Z,13.16
2023-03-24T11:47:58.225Z,13.18
2023-03-24T11:48:58.177Z,13.20
2023-03-24T11:49:58.182Z,13.23
2023-03-24T11:50:58.180Z,13.25
2023-03-24T11:51:58.161Z,13.27
2023-03-24T11:52:58.146Z,13.31
2023-03-24T11:53:58.126Z,13.37
2023-03-24T11:54:58.130Z,13.39
2023-03-24T11:55:58.145Z,13.39
2023-03-24T11:56:58.183Z,13.41
2023-03-24T11:57:58.099Z,13.41
2023-03-24T11:58:58.078Z,13.44
2023-03-24T11:59:58.319Z,13.46
2023-03-24T12:00:58.096Z,13.49
2023-03-24T12:01:58.044Z,13.50
2023-03-24T12:02:58.180Z,13.56
2023-03-24T12:03:58.050Z,13.60
2023-03-24T12:04:58.014Z,13.68
2023-03-24T12:05:58.070Z,13.74
2023-03-24T12:06:57.996Z,13.77
2023-03-24T12:07:58.003Z,13.81
2023-03-24T12:08:57.981Z,13.85
2023-03-24T12:09:57.940Z,13.87
2023-03-24T12:10:57.978Z,13.90
2023-03-24T12:11:57.911Z,13.90
2023-03-24T12:12:57.935Z,13.90
2023-03-24T12:13:57.938Z,13.93
2023-03-24T12:14:57.922Z,13.92
2023-03-24T12:15:57.944Z,13.96
2023-03-24T12:16:57.875Z,14.00
2023-03-24T12:17:57.865Z,14.04
2023-03-24T12:18:57.935Z,14.04
2023-03-24T12:19:57.835Z,14.07
2023-03-24T12:20:57.843Z,14.08
2023-03-24T12:21:57.803Z,14.11
2023-03-24T12:22:57.808Z,14.12
2023-03-24T12:23:57.789Z,14.17
2023-03-24T12:24:57.801Z,14.18
2023-03-24T12:25:57.759Z,14.20
2023-03-24T12:26:57.762Z,14.22
2023-03-24T12:27:57.745Z,14.26
2023-03-24T12:28:58.020Z,14.26
2023-03-24T12:29:57.740Z,14.28
2023-03-24T12:30:57.778Z,14.30
2023-03-24T12:31:57.743Z,14.32
2023-03-24T12:32:57.734Z,14.37
2023-03-24T12:33:57.680Z,14.37
2023-03-24T12:34:57.752Z,14.40
2023-03-24T12:35:57.738Z,14.37
2023-03-24T12:36:57.676Z,14.37
2023-03-24T12:37:57.624Z,14.40
2023-03-24T12:38:57.638Z,14.36
2023-03-24T12:39:57.621Z,14.35
2023-03-24T12:40:57.634Z,14.36
2023-03-24T12:41:57.607Z,14.36
2023-03-24T12:42:57.586Z,14.37
2023-03-24T12:43:57.626Z,14.36
2023-03-24T12:44:57.576Z,14.35
2023-03-24T12:45:57.708Z,14.37
2023-03-24T12:46:57.582Z,14.40
2023-03-24T12:47:57.561Z,14.41
2023-03-24T12:48:57.554Z,14.45
2023-03-24T12:49:57.523Z,14.47
2023-03-24T12:50:57.518Z,14.47
2023-03-24T12:51:57.522Z,14.47
2023-03-24T12:53:07.631Z,14.47
2023-03-24T12:53:57.478Z,14.47
2023-03-24T12:54:57.453Z,14.45
2023-03-24T12:55:57.464Z,14.47
2023-03-24T12:56:57.456Z,14.51
2023-03-24T12:57:57.413Z,14.58
2023-03-24T12:58:57.414Z,14.58
2023-03-24T12:59:57.414Z,14.60
2023-03-24T13:00:57.443Z,14.63
2023-03-24T13:01:57.393Z,14.68
2023-03-24T13:02:57.560Z,14.69
2023-03-24T13:03:57.339Z,14.70
2023-03-24T13:04:57.363Z,14.78
2023-03-24T13:06:07.210Z,14.79
2023-03-24T13:06:57.324Z,14.86
2023-03-24T13:07:57.313Z,14.89
2023-03-24T13:08:57.316Z,14.91
2023-03-24T13:09:57.303Z,14.91
2023-03-24T13:10:57.341Z,14.94
2023-03-24T13:11:57.317Z,14.96
2023-03-24T13:12:57.261Z,14.97
2023-03-24T13:13:57.234Z,14.97
2023-03-24T13:14:57.259Z,15.00
2023-03-24T13:15:57.242Z,15.03
2023-03-24T13:16:57.261Z,15.09
2023-03-24T13:17:57.328Z,15.11
2023-03-24T13:18:57.232Z,15.18
2023-03-24T13:19:57.196Z,15.18
2023-03-24T13:20:57.178Z,15.22
2023-03-24T13:21:57.170Z,15.22
2023-03-24T13:22:57.160Z,15.19
2023-03-24T13:23:57.164Z,15.22
2023-03-24T13:24:57.192Z,15.21
2023-03-24T13:25:57.120Z,15.19
2023-03-24T13:26:57.111Z,15.18
2023-03-24T13:27:57.096Z,15.17
2023-03-24T13:28:57.129Z,15.15
2023-03-24T13:29:57.080Z,15.15
2023-03-24T13:30:57.073Z,15.18
2023-03-24T13:31:57.094Z,15.21
2023-03-24T13:32:57.087Z,15.27
2023-03-24T13:33:57.020Z,15.33
2023-03-24T13:34:56.046Z,15.39
2023-03-24T13:35:57.442Z,15.43
2023-03-24T13:36:57.032Z,15.47
2023-03-24T13:37:56.984Z,15.52
2023-03-24T13:38:56.999Z,15.59
2023-03-24T13:39:57.014Z,15.67
2023-03-24T13:40:56.985Z,15.73
2023-03-24T13:41:56.962Z,15.77
2023-03-24T13:42:56.954Z,15.83
2023-03-24T13:43:56.918Z,15.91
2023-03-24T13:44:56.958Z,16.00
2023-03-24T13:45:56.970Z,16.10
2023-03-24T13:46:56.899Z,16.16
2023-03-24T13:47:57.844Z,16.28
2023-03-24T13:48:56.865Z,16.33
2023-03-24T13:49:56.846Z,16.35
2023-03-24T13:50:56.873Z,16.41
2023-03-24T13:51:56.827Z,16.43
2023-03-24T13:52:56.823Z,16.42
2023-03-24T13:53:56.817Z,16.46
2023-03-24T13:54:56.814Z,16.50
2023-03-24T13:55:56.804Z,16.51
2023-03-24T13:56:56.821Z,16.56
2023-03-24T13:57:56.776Z,16.61
2023-03-24T13:58:56.782Z,16.64
2023-03-24T13:59:56.732Z,16.71
2023-03-24T14:00:56.808Z,16.71
2023-03-24T14:01:56.734Z,16.75
2023-03-24T14:02:56.780Z,16.76
2023-03-24T14:03:56.726Z,16.81
2023-03-24T14:04:56.703Z,16.89
2023-03-24T14:05:56.670Z,16.94
2023-03-24T14:06:56.680Z,16.99
2023-03-24T14:07:56.663Z,17.04
2023-03-24T14:08:56.707Z,17.04
2023-03-24T14:09:56.661Z,17.06
2023-03-24T14:10:56.627Z,17.15
2023-03-24T14:11:56.607Z,17.23
2023-03-24T14:12:56.620Z,17.26
2023-03-24T14:13:56.659Z,17.30
2023-03-24T14:14:56.613Z,17.33
2023-03-24T14:15:56.616Z,17.31
2023-03-24T14:16:56.576Z,17.38
2023-03-24T14:17:56.578Z,17.42
2023-03-24T14:18:56.601Z,17.44
2023-03-24T14:19:56.546Z,17.46
2023-03-24T14:20:56.637Z,17.48
2023-03-24T14:21:56.502Z,17.45
2023-03-24T14:22:56.482Z,17.49
2023-03-24T14:23:58.703Z,17.52
2023-03-24T14:24:56.505Z,17.63
2023-03-24T14:25:56.475Z,17.65
2023-03-24T14:26:56.461Z,17.70
2023-03-24T14:27:56.440Z,17.72
2023-03-24T14:28:56.424Z,17.79
2023-03-24T14:29:56.424Z,17.83
2023-03-24T14:30:58.438Z,17.86
2023-03-24T14:31:56.567Z,17.94
2023-03-24T14:32:56.441Z,17.98
2023-03-24T14:33:56.403Z,18.00
2023-03-24T14:34:56.359Z,18.05
2023-03-24T14:35:56.390Z,18.01
2023-03-24T14:36:56.341Z,18.04
2023-03-24T14:37:56.346Z,18.01
2023-03-24T14:38:56.308Z,17.97
2023-03-24T14:39:56.327Z,17.92
2023-03-24T14:40:56.287Z,17.95
2023-03-24T14:41:58.657Z,17.92
2023-03-24T14:42:56.270Z,17.92
2023-03-24T14:43:56.302Z,17.90
2023-03-24T14:44:56.302Z,17.95
2023-03-24T14:45:56.293Z,18.01
2023-03-24T14:46:56.303Z,18.03
2023-03-24T14:47:56.236Z,18.05
2023-03-24T14:48:56.233Z,18.05
2023-03-24T14:49:56.262Z,18.08
2023-03-24T14:50:56.189Z,18.04
2023-03-24T14:51:56.234Z,18.01
2023-03-24T14:52:56.182Z,17.97
2023-03-24T14:53:56.160Z,17.95
2023-03-24T14:54:56.186Z,17.90
2023-03-24T14:55:56.152Z,17.87
2023-03-24T14:56:56.178Z,17.80
2023-03-24T14:57:56.110Z,17.74
2023-03-24T14:58:56.146Z,17.65
2023-03-24T14:59:56.106Z,17.60
2023-03-24T15:01:07.098Z,17.54
2023-03-24T15:01:56.164Z,17.49
2023-03-24T15:02:56.127Z,17.44
2023-03-24T15:03:56.107Z,17.39
2023-03-24T15:04:56.036Z,17.33
2023-03-24T15:05:56.027Z,17.27
2023-03-24T15:06:56.075Z,17.22
2023-03-24T15:07:56.032Z,17.20
2023-03-24T15:08:55.975Z,17.15
2023-03-24T15:09:56.027Z,17.14
2023-03-24T15:10:55.968Z,17.08
2023-03-24T15:11:55.971Z,17.04
2023-03-24T15:12:55.978Z,17.04
2023-03-24T15:13:55.972Z,16.97
2023-03-24T15:14:55.926Z,16.94
2023-03-24T15:15:55.956Z,16.89
2023-03-24T15:16:55.922Z,16.86
2023-03-24T15:17:55.936Z,16.81
2023-03-24T15:19:55.921Z,16.66
2023-03-24T15:20:55.852Z,16.61
2023-03-24T15:21:55.854Z,16.61
2023-03-24T15:22:55.867Z,16.54
2023-03-24T15:23:55.845Z,16.53
2023-03-24T15:24:55.842Z,16.54
2023-03-24T15:25:56.378Z,16.56
2023-03-24T15:26:55.802Z,16.54
2023-03-24T15:27:55.856Z,16.56
2023-03-24T15:28:55.758Z,16.58
2023-03-24T15:29:55.790Z,16.65
2023-03-24T15:30:55.756Z,16.66
2023-03-24T15:31:55.850Z,16.69
2023-03-24T15:32:55.791Z,16.71
2023-03-24T15:33:55.763Z,16.75
2023-03-24T15:34:55.705Z,16.84
2023-03-24T15:35:55.799Z,16.86
2023-03-24T15:36:55.681Z,16.87
2023-03-24T15:37:55.734Z,16.87
2023-03-24T15:38:55.665Z,16.87
2023-03-24T15:40:05.226Z,16.91
2023-03-24T15:40:55.657Z,16.87
2023-03-24T15:41:55.670Z,16.86
2023-03-24T15:42:55.651Z,16.87
2023-03-24T15:43:55.634Z,16.86
2023-03-24T15:44:55.598Z,16.87
2023-03-24T15:46:08.808Z,16.79
2023-03-24T15:46:55.592Z,16.81
2023-03-24T15:47:55.608Z,16.87
2023-03-24T15:48:55.607Z,16.87
2023-03-24T15:49:55.557Z,16.84
2023-03-24T15:50:55.532Z,16.86
2023-03-24T15:51:55.534Z,16.86
2023-03-24T15:52:55.511Z,16.89
2023-03-24T15:53:55.537Z,16.94
2023-03-24T15:54:55.509Z,17.01
2023-03-24T15:55:55.475Z,17.05
2023-03-24T15:56:55.507Z,17.15
2023-03-24T15:57:55.495Z,17.16
2023-03-24T15:58:55.496Z,17.08
2023-03-24T15:59:55.456Z,17.02
2023-03-24T16:00:55.452Z,16.96
2023-03-24T16:01:55.408Z,16.87
2023-03-24T16:02:55.466Z,16.84
2023-03-24T16:03:55.444Z,16.78
2023-03-24T16:05:07.822Z,16.68
2023-03-24T16:05:55.434Z,16.72
2023-03-24T16:06:55.349Z,16.76
2023-03-24T16:07:55.361Z,16.69
2023-03-24T16:08:55.355Z,16.68
2023-03-24T16:09:55.332Z,16.65
2023-03-24T16:10:55.338Z,16.64
2023-03-24T16:11:55.325Z,16.91
2023-03-24T16:12:55.272Z,16.81
2023-03-24T16:13:55.305Z,16.71
2023-03-24T16:14:55.270Z,16.66
2023-03-24T16:15:55.283Z,16.56
2023-03-24T16:16:55.344Z,16.46
2023-03-24T16:17:55.277Z,16.36
2023-03-24T16:18:55.226Z,16.31
2023-03-24T16:19:55.236Z,16.28
2023-03-24T16:20:55.207Z,16.23
2023-03-24T16:21:55.214Z,16.16
2023-03-24T16:22:55.177Z,16.12
2023-03-24T16:23:55.214Z,16.15
2023-03-24T16:24:55.147Z,16.12
2023-03-24T16:25:55.179Z,16.08
2023-03-24T16:26:55.149Z,15.98
2023-03-24T16:27:55.149Z,15.95
2023-03-24T16:28:55.140Z,15.90
2023-03-24T16:29:55.115Z,15.86
2023-03-24T16:30:55.121Z,15.82
2023-03-24T16:31:55.213Z,15.82
2023-03-24T16:32:55.173Z,15.79
2023-03-24T16:33:57.722Z,15.77
2023-03-24T16:34:55.048Z,15.77
2023-03-24T16:35:55.073Z,15.75
2023-03-24T16:36:55.028Z,15.73
2023-03-24T16:37:55.047Z,15.72
2023-03-24T16:38:55.043Z,15.72
2023-03-24T16:39:55.018Z,15.72
2023-03-24T16:40:54.980Z,15.70
2023-03-24T16:41:55.057Z,15.70
2023-03-24T16:42:54.954Z,15.67
2023-03-24T16:43:54.970Z,15.65
2023-03-24T16:44:55.005Z,15.64
2023-03-24T16:45:55.064Z,15.61
2023-03-24T16:46:55.050Z,15.62
2023-03-24T16:47:54.935Z,15.61
2023-03-24T16:48:54.914Z,15.58
2023-03-24T16:49:54.888Z,15.58
2023-03-24T16:50:54.892Z,15.59
2023-03-24T16:51:54.912Z,15.59
2023-03-24T16:52:54.859Z,15.57
2023-03-24T16:53:54.884Z,15.58
2023-03-24T16:54:54.845Z,15.57
2023-03-24T16:55:54.841Z,15.58
2023-03-24T16:56:54.901Z,15.58
2023-03-24T16:57:54.847Z,15.58
2023-03-24T16:58:54.780Z,15.54
2023-03-24T16:59:54.792Z,15.52
2023-03-24T17:00:54.773Z,15.51
2023-03-24T17:01:54.783Z,15.44
2023-03-24T17:02:54.852Z,15.42
2023-03-24T17:03:54.870Z,15.39
2023-03-24T17:04:54.716Z,15.37
2023-03-24T17:05:54.739Z,15.37
2023-03-24T17:06:54.955Z,15.33
2023-03-24T17:07:54.722Z,15.29
2023-03-24T17:08:54.733Z,15.25
2023-03-24T17:09:54.689Z,15.22
2023-03-24T17:10:54.657Z,15.24
2023-03-24T17:11:54.696Z,15.18
2023-03-24T17:12:54.630Z,15.15
2023-03-24T17:13:54.660Z,15.15
2023-03-24T17:14:54.665Z,15.10
2023-03-24T17:15:54.683Z,15.09
2023-03-24T17:16:54.585Z,15.06
2023-03-24T17:17:54.756Z,15.02
2023-03-24T17:18:54.567Z,14.99
2023-03-24T17:19:54.619Z,14.99
2023-03-24T17:20:54.556Z,14.96
2023-03-24T17:21:54.558Z,14.92
2023-03-24T17:22:54.534Z,14.91
2023-03-24T17:23:54.529Z,14.88
2023-03-24T17:24:54.546Z,14.88